createdAt,value
2019-03-09T00:03:11.246Z,98263.77
2019-03-09T00:07:16.939Z,98264.30
2019-03-09T00:11:22.888Z,98270.37
2019-03-09T00:15:29.603Z,98285.72
2019-03-09T00:19:35.300Z,98283.89
2019-03-09T00:23:52.832Z,98281.34
2019-03-09T00:28:00.163Z,98278.17
2019-03-09T00:32:07.634Z,98289.04
2019-03-09T00:36:13.318Z,98279.48
2019-03-09T00:40:19.081Z,98279.53
2019-03-09T00:44:24.768Z,98272.91
2019-03-09T00:48:30.458Z,98282.66
2019-03-09T00:52:36.168Z,98273.28
2019-03-09T00:56:42.122Z,98265.99
2019-03-09T01:00:47.808Z,98267.17
2019-03-09T01:04:54.646Z,98259.52
2019-03-09T01:09:00.386Z,98249.52
2019-03-09T01:13:07.891Z,98243.33
2019-03-09T01:17:13.581Z,98240.66
2019-03-09T01:21:19.277Z,98246.19
2019-03-09T01:25:26.497Z,98243.48
2019-03-09T01:29:32.183Z,98240.44
2019-03-09T01:33:37.868Z,98232.61
2019-03-09T01:37:43.557Z,98214.33
2019-03-09T01:41:49.251Z,98212.54
2019-03-09T01:45:54.940Z,98203.56
2019-03-09T01:50:00.616Z,98200.48
2019-03-09T01:54:06.526Z,98184.31
2019-03-09T01:58:13.339Z,98172.05
2019-03-09T02:02:19.037Z,98179.70
2019-03-09T02:06:24.748Z,98166.48
2019-03-09T02:10:32.015Z,98166.63
2019-03-09T02:14:37.780Z,98152.17
2019-03-09T02:18:43.462Z,98150.64
2019-03-09T02:22:49.165Z,98147.11
2019-03-09T02:26:54.856Z,98144.61
2019-03-09T02:31:00.552Z,98141.05
2019-03-09T02:35:13.229Z,98144.72
2019-03-09T02:39:26.477Z,98129.73
2019-03-09T02:43:32.255Z,98130.41
2019-03-09T02:47:38.070Z,98125.19
2019-03-09T02:51:43.901Z,98117.63
2019-03-09T02:55:49.595Z,98136.13
2019-03-09T02:59:55.268Z,98133.87
2019-03-09T03:04:00.978Z,98115.06
2019-03-09T03:08:06.754Z,98109.34
2019-03-09T03:12:12.440Z,98099.17
2019-03-09T03:16:18.163Z,98102.84
2019-03-09T03:20:23.835Z,98101.66
2019-03-09T03:24:29.548Z,98083.83
2019-03-09T03:28:35.249Z,98069.75
2019-03-09T03:32:40.949Z,98074.89
2019-03-09T03:36:46.646Z,98067.48
2019-03-09T03:40:52.344Z,98062.10
2019-03-09T03:44:58.102Z,98051.77
2019-03-09T03:49:04.089Z,98041.67
2019-03-09T03:53:09.884Z,98028.73
2019-03-09T03:57:15.580Z,98024.16
2019-03-09T04:01:21.340Z,98025.45
2019-03-09T04:05:27.128Z,98003.63
2019-03-09T04:09:33.112Z,98011.62
2019-03-09T04:13:38.999Z,98001.97
2019-03-09T04:29:16.436Z,97992.84
2019-03-09T04:34:16.372Z,97994.29
2019-03-09T04:54:36.237Z,98009.99
2019-03-09T04:58:59.603Z,98020.01
2019-03-09T05:08:21.994Z,98022.98
2019-03-09T05:17:18.598Z,98036.58
2019-03-09T05:21:24.308Z,98049.63
2019-03-09T05:25:30.002Z,98036.56
2019-03-09T05:29:35.689Z,98041.05
2019-03-09T05:33:59.460Z,98045.68
2019-03-09T05:38:17.568Z,98049.02
2019-03-09T05:42:23.259Z,98048.39
2019-03-09T05:46:28.977Z,98046.66
2019-03-09T05:50:34.725Z,98053.65
2019-03-09T05:54:40.403Z,98050.16
2019-03-09T06:03:21.348Z,98065.60
2019-03-09T06:07:27.044Z,98076.14
2019-03-09T06:11:33.357Z,98084.22
2019-03-09T06:15:39.124Z,98085.48
2019-03-09T06:19:44.810Z,98080.77
2019-03-09T06:28:19.955Z,98069.52
2019-03-09T06:32:36.123Z,98071.56
2019-03-09T06:36:49.310Z,98070.25
2019-03-09T06:41:02.635Z,98063.17
2019-03-09T06:45:04.513Z,98086.90
2019-03-09T06:49:10.288Z,98069.13
2019-03-09T06:53:15.957Z,98072.91
2019-03-09T06:57:21.702Z,98081.61
2019-03-09T07:01:27.391Z,98109.53
2019-03-09T07:05:33.073Z,98124.39
2019-03-09T07:09:39.715Z,98112.01
2019-03-09T07:13:52.500Z,98134.22
2019-03-09T07:17:55.923Z,98138.77
2019-03-09T07:22:01.603Z,98148.68
2019-03-09T07:26:07.298Z,98157.31
2019-03-09T07:34:52.416Z,98161.43
2019-03-09T07:38:58.114Z,98157.45
2019-03-09T07:43:04.381Z,98169.34
2019-03-09T07:47:10.361Z,98165.90
2019-03-09T07:51:16.052Z,98161.83
2019-03-09T07:55:23.611Z,98180.79
2019-03-09T07:59:29.296Z,98183.48
2019-03-09T08:03:34.993Z,98172.95
2019-03-09T08:07:40.691Z,98169.22
2019-03-09T08:11:46.405Z,98171.04
2019-03-09T08:15:52.149Z,98177.29
2019-03-09T08:19:57.913Z,98175.92
2019-03-09T08:24:03.629Z,98183.27
2019-03-09T08:28:09.388Z,98203.91
2019-03-09T08:32:15.140Z,98233.40
2019-03-09T08:36:20.827Z,98246.34
2019-03-09T08:40:26.519Z,98241.23
2019-03-09T08:44:32.198Z,98228.98
2019-03-09T08:48:37.956Z,98238.47
2019-03-09T08:52:43.729Z,98247.47
2019-03-09T08:56:49.414Z,98245.17
2019-03-09T09:00:55.162Z,98257.76
2019-03-09T09:05:00.831Z,98266.95
2019-03-09T09:09:07.643Z,98269.67
2019-03-09T09:13:13.729Z,98275.30
2019-03-09T09:17:19.431Z,98268.33
2019-03-09T09:21:25.130Z,98264.59
2019-03-09T09:25:30.823Z,98269.84
2019-03-09T09:29:39.571Z,98269.34
2019-03-09T09:33:43.898Z,98265.41
2019-03-09T09:37:49.660Z,98271.37
2019-03-09T09:41:55.402Z,98260.11
2019-03-09T09:46:01.178Z,98256.77
2019-03-09T09:50:11.573Z,98266.55
2019-03-09T09:54:17.253Z,98294.53
2019-03-09T09:58:22.950Z,98288.66
2019-03-09T10:02:28.644Z,98288.75
2019-03-09T10:06:34.368Z,98283.70
2019-03-09T10:10:40.075Z,98267.79
2019-03-09T10:14:45.742Z,98275.47
2019-03-09T10:18:51.432Z,98273.52
2019-03-09T10:23:04.143Z,98276.84
2019-03-09T10:27:04.695Z,98279.91
2019-03-09T10:31:10.403Z,98285.53
2019-03-09T10:35:16.081Z,98284.23
2019-03-09T10:39:21.777Z,98285.15
2019-03-09T10:43:27.480Z,98272.91
2019-03-09T10:47:33.173Z,98248.91
2019-03-09T10:51:38.884Z,98234.55
2019-03-09T10:55:44.633Z,98246.76
2019-03-09T10:59:50.315Z,98261.91
2019-03-09T11:03:56.016Z,98255.39
2019-03-09T11:08:01.895Z,98258.78
2019-03-09T11:12:07.596Z,98248.56
2019-03-09T11:16:14.386Z,98250.44
2019-03-09T11:20:21.772Z,98246.25
2019-03-09T11:24:27.507Z,98246.53
2019-03-09T11:28:33.205Z,98237.91
2019-03-09T11:32:38.895Z,98233.82
2019-03-09T11:36:44.674Z,98250.25
2019-03-09T11:40:57.598Z,98244.82
2019-03-09T11:44:57.883Z,98233.22
2019-03-09T11:49:03.588Z,98218.05
2019-03-09T11:53:09.363Z,98206.84
2019-03-09T11:57:16.183Z,98212.48
2019-03-09T12:01:21.842Z,98231.94
2019-03-09T12:05:27.545Z,98247.45
2019-03-09T12:09:33.259Z,98249.83
2019-03-09T12:13:39.021Z,98259.73
2019-03-09T12:17:44.705Z,98251.14
2019-03-09T12:21:50.445Z,98253.92
2019-03-09T12:25:56.134Z,98248.97
2019-03-09T12:30:03.761Z,98246.22
2019-03-09T12:34:09.412Z,98251.29
2019-03-09T12:38:15.116Z,98250.59
2019-03-09T12:42:20.822Z,98256.36
2019-03-09T12:46:26.514Z,98256.61
2019-03-09T12:50:32.281Z,98248.32
2019-03-09T12:54:38.002Z,98235.67
2019-03-09T12:58:46.052Z,98238.38
2019-03-09T13:02:51.247Z,98238.48
2019-03-09T13:06:57.015Z,98225.04
2019-03-09T13:11:02.772Z,98220.34
2019-03-09T13:15:10.385Z,98224.03
2019-03-09T13:19:17.170Z,98217.47
2019-03-09T13:23:22.875Z,98207.68
2019-03-09T13:27:28.658Z,98199.20
2019-03-09T13:31:34.339Z,98180.28
2019-03-09T13:35:40.035Z,98175.54
2019-03-09T13:39:45.794Z,98154.94
2019-03-09T13:43:51.488Z,98138.10
2019-03-09T13:47:57.174Z,98134.77
2019-03-09T13:52:02.886Z,98114.22
2019-03-09T13:56:08.599Z,98111.80
2019-03-09T14:00:18.582Z,98114.41
2019-03-09T14:04:25.220Z,98103.30
2019-03-09T14:08:30.935Z,98105.80
2019-03-09T14:12:36.685Z,98089.77
2019-03-09T14:16:42.388Z,98098.38
2019-03-09T14:20:48.497Z,98112.77
2019-03-09T14:24:54.247Z,98102.83
2019-03-09T14:29:00.890Z,98077.54
2019-03-09T14:33:06.668Z,98083.99
2019-03-09T14:37:12.384Z,98106.93
2019-03-09T14:41:18.080Z,98087.25
2019-03-09T14:45:24.834Z,98084.37
2019-03-09T14:49:30.507Z,98096.43
2019-03-09T14:53:36.210Z,98099.22
2019-03-09T14:57:42.344Z,98112.52
2019-03-09T15:01:48.039Z,98094.52
2019-03-09T15:05:53.797Z,98094.61
2019-03-09T15:10:01.015Z,98087.58
2019-03-09T15:14:06.946Z,98078.59
2019-03-09T15:18:12.653Z,98074.88
2019-03-09T15:22:18.375Z,98065.91
2019-03-09T15:26:24.059Z,98065.70
2019-03-09T15:30:29.779Z,98052.06
2019-03-09T15:34:35.463Z,98044.61
2019-03-09T15:38:41.157Z,98049.77
2019-03-09T15:42:46.955Z,98041.71
2019-03-09T15:46:52.624Z,98047.92
2019-03-09T15:50:58.563Z,98059.23
2019-03-09T15:55:05.194Z,98067.86
2019-03-09T15:59:11.167Z,98075.63
2019-03-09T16:03:16.852Z,98074.04
2019-03-09T16:07:22.543Z,98059.25
2019-03-09T16:11:28.238Z,98045.62
2019-03-09T16:15:33.935Z,98056.07
2019-03-09T16:19:39.630Z,98051.32
2019-03-09T16:23:45.363Z,98045.83
2019-03-09T16:27:51.196Z,98039.28
2019-03-09T16:31:58.655Z,98044.05
2019-03-09T16:36:04.501Z,98059.75
2019-03-09T16:40:22.052Z,98065.09
2019-03-09T16:44:27.759Z,98068.23
2019-03-09T16:48:33.529Z,98077.41
2019-03-09T16:52:39.242Z,98079.28
2019-03-09T16:56:45.004Z,98084.48
2019-03-09T17:00:50.714Z,98077.77
2019-03-09T17:04:56.488Z,98081.55
2019-03-09T17:09:02.292Z,98091.74
2019-03-09T17:13:18.423Z,98075.41
2019-03-09T17:17:28.023Z,98079.17
2019-03-09T17:21:33.446Z,98071.16
2019-03-09T17:26:18.451Z,98077.27
2019-03-09T17:30:24.278Z,98072.95
2019-03-09T17:34:29.969Z,98071.00
2019-03-09T17:38:35.694Z,98070.39
2019-03-09T17:43:17.696Z,98088.33
2019-03-09T17:47:23.392Z,98088.51
2019-03-09T17:51:30.790Z,98106.05
2019-03-09T17:55:36.491Z,98130.58
2019-03-09T17:59:42.245Z,98131.78
2019-03-09T18:03:47.953Z,98129.55
2019-03-09T18:07:53.707Z,98134.22
2019-03-09T18:11:59.406Z,98130.64
2019-03-09T18:16:05.179Z,98142.90
2019-03-09T18:20:12.798Z,98142.99
2019-03-09T18:24:18.575Z,98160.01
2019-03-09T18:28:24.283Z,98188.78
2019-03-09T18:33:03.534Z,98200.45
2019-03-09T18:37:09.325Z,98218.07
2019-03-09T18:41:14.995Z,98233.92
2019-03-09T18:45:24.942Z,98230.84
2019-03-09T18:49:30.640Z,98247.87
2019-03-09T18:53:36.367Z,98255.02
2019-03-09T18:57:42.082Z,98261.67
2019-03-09T19:01:47.804Z,98259.62
2019-03-09T19:05:53.512Z,98273.42
2019-03-09T19:09:59.211Z,98273.92
2019-03-09T19:14:05.032Z,98271.55
2019-03-09T19:18:10.718Z,98275.97
2019-03-09T19:22:16.460Z,98269.35
2019-03-09T19:26:22.182Z,98261.94
2019-03-09T19:30:27.872Z,98278.02
2019-03-09T19:34:33.564Z,98282.36
2019-03-09T19:38:39.261Z,98276.82
2019-03-09T19:42:45.041Z,98282.45
2019-03-09T19:46:50.750Z,98273.61
2019-03-09T19:50:56.450Z,98281.11
2019-03-09T19:55:02.163Z,98285.02
2019-03-09T19:59:07.893Z,98289.08
2019-03-09T20:03:13.608Z,98304.77
2019-03-09T20:07:19.372Z,98302.73
2019-03-09T20:11:25.053Z,98309.97
2019-03-09T20:15:30.826Z,98305.20
2019-03-09T20:19:36.491Z,98316.17
2019-03-09T20:23:42.196Z,98318.76
2019-03-09T20:27:47.885Z,98317.14
2019-03-09T20:31:53.608Z,98330.34
2019-03-09T20:35:59.380Z,98336.98
2019-03-09T20:40:11.957Z,98338.19
2019-03-09T20:44:17.646Z,98331.20
2019-03-09T20:48:23.428Z,98338.95
2019-03-09T20:52:29.117Z,98351.22
2019-03-09T20:56:34.825Z,98359.66
2019-03-09T21:00:40.501Z,98356.07
2019-03-09T21:04:46.194Z,98364.09
2019-03-09T21:08:51.936Z,98364.31
2019-03-09T21:13:07.008Z,98364.64
2019-03-09T21:17:12.701Z,98377.63
2019-03-09T21:21:18.412Z,98379.41
2019-03-09T21:25:24.300Z,98375.04
2019-03-09T21:29:30.017Z,98379.80
2019-03-09T21:33:35.707Z,98371.03
2019-03-09T21:37:41.392Z,98365.50
2019-03-09T21:41:47.115Z,98377.23
2019-03-09T21:45:52.812Z,98379.80
2019-03-09T21:49:58.516Z,98370.27
2019-03-09T21:54:04.205Z,98363.46
2019-03-09T21:58:09.880Z,98371.99
2019-03-09T22:02:16.850Z,98372.64
2019-03-09T22:06:22.615Z,98360.14
2019-03-09T22:10:29.953Z,98356.97
2019-03-09T22:14:35.647Z,98363.06
2019-03-09T22:18:41.352Z,98359.14
2019-03-09T22:22:48.083Z,98352.23
2019-03-09T22:26:53.780Z,98358.69
2019-03-09T22:30:59.531Z,98356.91
2019-03-09T22:35:05.711Z,98364.38
2019-03-09T22:39:11.410Z,98359.02
2019-03-09T22:43:17.143Z,98359.38
2019-03-09T22:47:22.815Z,98360.41
2019-03-09T22:51:28.532Z,98371.47
2019-03-09T22:55:34.186Z,98363.25
2019-03-09T22:59:39.962Z,98363.30
2019-03-09T23:03:45.765Z,98352.05
2019-03-09T23:07:51.520Z,98360.94
2019-03-09T23:11:57.295Z,98361.80
2019-03-09T23:16:03.044Z,98354.16
2019-03-09T23:20:12.253Z,98349.55
2019-03-09T23:24:17.946Z,98350.33
2019-03-09T23:28:23.662Z,98329.60
2019-03-09T23:32:29.400Z,98341.18
2019-03-09T23:36:35.073Z,98337.06
2019-03-09T23:40:40.769Z,98332.48
2019-03-09T23:44:46.463Z,98334.61
2019-03-09T23:48:52.663Z,98330.39
2019-03-09T23:52:58.598Z,98322.34
2019-03-09T23:57:04.299Z,98308.73
